createdAt,value
2023-07-09T05:02:27.754Z,100.00
2023-07-09T05:05:14.100Z,100.00
2023-07-09T05:08:00.685Z,100.00
2023-07-09T05:10:48.003Z,100.00
2023-07-09T05:13:34.212Z,100.00
2023-07-09T07:30:39.962Z,100.00
2023-07-09T07:33:28.248Z,100.00
2023-07-09T07:36:28.906Z,100.00
2023-07-09T07:39:16.946Z,100.00
2023-07-09T07:42:05.179Z,100.00
2023-07-09T07:44:53.264Z,100.00
2023-07-09T07:47:42.061Z,100.00
2023-07-09T07:50:28.463Z,100.00
2023-07-09T07:53:14.923Z,100.00
2023-07-09T07:56:03.164Z,100.00
2023-07-09T07:58:49.878Z,100.00
2023-07-09T08:01:36.970Z,100.00
2023-07-09T08:04:25.683Z,100.00
2023-07-09T08:07:12.958Z,100.00
2023-07-09T08:09:59.813Z,100.00
2023-07-09T08:12:45.812Z,100.00
2023-07-09T08:15:32.388Z,100.00
2023-07-09T08:18:18.798Z,100.00
2023-07-09T08:21:06.598Z,100.00
2023-07-09T08:23:53.078Z,100.00
2023-07-09T08:26:40.343Z,100.00
2023-07-09T08:29:26.546Z,100.00
2023-07-09T08:32:13.734Z,100.00
2023-07-09T08:37:51.080Z,100.00
2023-07-09T08:40:41.771Z,100.00
2023-07-09T08:43:38.349Z,100.00
2023-07-09T08:46:31.075Z,100.00
2023-07-09T08:49:21.537Z,100.00
2023-07-09T08:52:11.911Z,100.00
2023-07-09T08:55:01.564Z,100.00
2023-07-09T08:57:51.896Z,100.00
2023-07-09T09:00:42.894Z,100.00
2023-07-09T09:03:32.933Z,100.00
2023-07-09T09:06:21.448Z,100.00
2023-07-09T09:09:14.282Z,100.00
2023-07-09T09:12:10.893Z,100.00
2023-07-09T09:14:59.487Z,100.00
2023-07-09T09:17:45.930Z,100.00
2023-07-09T09:20:32.283Z,100.00
2023-07-09T09:23:19.107Z,100.00
2023-07-09T09:29:11.930Z,100.00
2023-07-09T09:31:59.264Z,100.00
2023-07-09T09:34:46.870Z,100.00
2023-07-09T09:37:34.933Z,100.00
2023-07-09T09:40:23.368Z,100.00
2023-07-09T09:43:15.906Z,100.00
2023-07-09T09:46:08.399Z,100.00
2023-07-09T09:48:56.462Z,100.00
2023-07-09T09:51:45.569Z,99.89
2023-07-09T09:54:36.314Z,100.00
2023-07-09T09:57:24.534Z,100.00
2023-07-09T10:00:17.263Z,94.33
2023-07-09T10:03:07.849Z,100.00
2023-07-09T10:05:57.553Z,100.00
2023-07-09T10:08:53.168Z,100.00
2023-07-09T10:11:46.533Z,94.87
2023-07-09T10:14:39.816Z,85.45
2023-07-09T11:01:46.606Z,82.74
2023-07-09T11:04:37.500Z,76.70
2023-07-09T11:07:26.900Z,75.16
2023-07-09T11:10:19.901Z,81.76
2023-07-09T11:13:21.482Z,82.62
2023-07-09T11:16:08.625Z,77.09
2023-07-09T11:18:57.743Z,76.91
2023-07-09T11:22:00.196Z,87.21
2023-07-09T11:24:48.653Z,73.31
2023-07-09T11:27:35.554Z,69.78
2023-07-09T11:30:24.028Z,88.80
2023-07-09T11:33:24.430Z,93.35
2023-07-09T11:36:14.150Z,91.16
2023-07-09T11:39:01.887Z,100.00
2023-07-09T11:41:49.167Z,100.00
2023-07-09T11:44:35.706Z,100.00
2023-07-09T11:47:24.408Z,100.00
2023-07-09T11:50:22.467Z,100.00
2023-07-09T11:53:20.822Z,100.00
2023-07-09T11:56:09.717Z,100.00
2023-07-09T11:58:57.628Z,100.00
2023-07-09T12:02:03.798Z,100.00
2023-07-09T12:04:51.394Z,100.00
2023-07-09T12:07:38.313Z,100.00
2023-07-09T12:10:27.872Z,100.00
2023-07-09T12:17:18.918Z,100.00
2023-07-09T12:20:06.867Z,100.00
2023-07-09T12:22:53.703Z,100.00
2023-07-09T12:25:40.395Z,100.00
2023-07-09T12:28:28.750Z,100.00
2023-07-09T12:31:15.640Z,100.00
2023-07-09T12:34:06.466Z,96.38
2023-07-09T12:36:56.045Z,100.00
2023-07-09T12:39:42.722Z,97.33
2023-07-09T12:42:31.962Z,100.00
2023-07-09T12:45:19.758Z,99.99
2023-07-09T12:48:06.605Z,100.00
2023-07-09T12:50:56.508Z,98.19
2023-07-09T12:53:42.901Z,100.00
2023-07-09T12:56:29.067Z,100.00
2023-07-09T12:59:20.036Z,100.00
2023-07-09T13:02:09.816Z,100.00
2023-07-09T13:05:02.210Z,98.91
2023-07-09T13:07:52.296Z,100.00
2023-07-09T13:10:44.418Z,100.00
2023-07-09T13:13:30.866Z,100.00
2023-07-09T13:16:17.434Z,96.25
2023-07-09T13:19:04.257Z,96.81
2023-07-09T13:21:51.814Z,100.00
2023-07-09T13:24:43.428Z,99.56
2023-07-09T13:27:29.780Z,100.00
2023-07-09T13:30:19.217Z,100.00
2023-07-09T13:33:09.996Z,100.00
2023-07-09T13:35:56.782Z,100.00
2023-07-09T13:38:43.399Z,100.00
2023-07-09T13:41:31.242Z,100.00
2023-07-09T13:44:18.724Z,100.00
2023-07-09T13:47:06.798Z,100.00
2023-07-09T13:49:53.403Z,100.00
2023-07-09T13:52:39.374Z,100.00
2023-07-09T13:55:26.140Z,100.00
2023-07-09T13:58:14.550Z,100.00
2023-07-09T14:01:06.352Z,100.00
2023-07-09T14:03:55.406Z,100.00
2023-07-09T14:06:42.692Z,100.00
2023-07-09T14:09:29.712Z,100.00
2023-07-09T14:12:16.123Z,100.00
2023-07-09T14:15:04.846Z,100.00
2023-07-09T14:17:51.253Z,100.00
2023-07-09T14:20:37.966Z,100.00
2023-07-09T14:23:24.454Z,100.00
2023-07-09T14:26:11.277Z,100.00
2023-07-09T14:29:00.397Z,100.00
2023-07-09T14:31:48.695Z,100.00
2023-07-09T14:34:40.353Z,100.00
2023-07-09T14:37:27.628Z,100.00
2023-07-09T14:40:14.651Z,100.00
2023-07-09T14:43:03.736Z,100.00
2023-07-09T14:45:50.865Z,100.00
2023-07-09T14:48:38.461Z,100.00
2023-07-09T14:51:24.607Z,100.00
2023-07-09T14:54:21.242Z,100.00
2023-07-09T14:57:11.261Z,100.00
2023-07-09T14:59:58.391Z,100.00
2023-07-09T15:25:19.027Z,100.00
2023-07-09T15:28:07.786Z,100.00
2023-07-09T15:30:54.123Z,100.00
2023-07-09T15:33:40.801Z,100.00
2023-07-09T15:36:26.976Z,100.00
2023-07-09T15:39:15.651Z,100.00
2023-07-09T15:42:03.410Z,100.00
2023-07-09T15:44:50.127Z,100.00
2023-07-09T15:47:36.913Z,100.00
2023-07-09T15:50:25.707Z,100.00
2023-07-09T15:53:12.364Z,100.00
2023-07-09T15:56:00.150Z,100.00
2023-07-09T15:58:52.568Z,100.00
2023-07-09T16:01:44.750Z,100.00
2023-07-09T16:04:31.613Z,100.00
2023-07-09T16:07:18.061Z,100.00
2023-07-09T16:10:05.291Z,100.00
2023-07-09T16:12:56.103Z,100.00
2023-07-09T16:18:53.412Z,100.00
2023-07-09T16:21:40.002Z,100.00
2023-07-09T16:24:27.341Z,100.00
2023-07-09T16:27:16.733Z,100.00
2023-07-09T16:30:03.289Z,100.00
2023-07-09T16:32:49.471Z,100.00
2023-07-09T16:35:37.670Z,100.00
2023-07-09T16:38:24.446Z,100.00
2023-07-09T16:41:13.591Z,100.00
2023-07-09T16:43:59.793Z,100.00
2023-07-09T16:46:48.172Z,100.00
2023-07-09T16:49:37.823Z,100.00
2023-07-09T16:52:28.218Z,100.00
2023-07-09T16:55:15.932Z,100.00
2023-07-09T16:58:03.062Z,100.00
2023-07-09T17:00:49.743Z,100.00
2023-07-09T17:03:36.486Z,100.00
2023-07-09T17:06:22.762Z,100.00
2023-07-09T17:09:10.217Z,100.00
2023-07-09T17:11:58.810Z,100.00
2023-07-09T17:14:45.068Z,100.00
2023-07-09T17:17:31.278Z,100.00
2023-07-09T17:20:18.325Z,100.00
2023-07-09T17:23:04.620Z,100.00
2023-07-09T17:25:54.368Z,100.00
2023-07-09T17:28:40.990Z,100.00
2023-07-09T17:31:27.224Z,100.00
2023-07-09T17:34:13.767Z,100.00
2023-07-09T17:37:01.754Z,100.00
2023-07-09T17:39:48.076Z,100.00
2023-07-09T17:42:35.847Z,100.00
2023-07-09T17:45:23.919Z,100.00
2023-07-09T17:48:15.162Z,100.00
2023-07-09T17:51:01.887Z,100.00
2023-07-09T17:53:48.453Z,100.00
2023-07-09T17:56:42.005Z,100.00
2023-07-09T17:59:38.269Z,100.00
2023-07-09T18:02:27.364Z,100.00
2023-07-09T18:05:24.483Z,100.00
2023-07-09T18:08:11.808Z,100.00
2023-07-09T18:10:59.625Z,100.00
2023-07-09T18:13:48.095Z,100.00
2023-07-09T18:16:34.482Z,100.00
2023-07-09T18:19:24.870Z,100.00
2023-07-09T18:22:15.801Z,100.00
2023-07-09T18:25:02.832Z,100.00
2023-07-09T18:27:50.896Z,100.00
2023-07-09T18:30:37.998Z,100.00
2023-07-09T18:33:24.799Z,100.00
2023-07-09T18:36:12.455Z,100.00
2023-07-09T18:38:58.955Z,100.00
2023-07-09T18:41:44.977Z,100.00
2023-07-09T18:44:31.057Z,100.00
2023-07-09T18:47:19.507Z,100.00
2023-07-09T18:50:10.816Z,100.00
2023-07-09T18:52:59.247Z,100.00
2023-07-09T18:55:48.165Z,100.00
2023-07-09T18:58:38.823Z,100.00
2023-07-09T19:01:27.758Z,100.00
2023-07-09T19:04:18.001Z,100.00
2023-07-09T19:07:05.659Z,100.00
2023-07-09T19:10:00.754Z,100.00
2023-07-09T19:12:47.912Z,100.00
2023-07-09T19:15:36.376Z,100.00
2023-07-09T19:18:24.842Z,100.00
2023-07-09T19:21:11.589Z,100.00
2023-07-09T19:23:57.852Z,100.00
2023-07-09T19:26:47.737Z,100.00
2023-07-09T19:29:37.590Z,100.00
2023-07-09T19:32:27.225Z,100.00
2023-07-09T19:35:18.617Z,100.00
2023-07-09T19:38:05.240Z,100.00
2023-07-09T19:40:51.656Z,100.00
2023-07-09T19:43:39.371Z,100.00
2023-07-09T19:46:27.863Z,100.00
2023-07-09T19:49:15.101Z,100.00
2023-07-09T19:52:01.145Z,100.00
2023-07-09T19:54:47.531Z,100.00
2023-07-09T19:57:34.018Z,100.00
2023-07-09T22:00:40.686Z,100.00
2023-07-09T22:03:33.964Z,100.00
2023-07-09T22:06:20.339Z,100.00
2023-07-09T22:09:06.458Z,100.00
2023-07-09T22:11:53.024Z,100.00
2023-07-09T22:14:39.518Z,100.00
